sensor_id;sensor_type;location;lat;lon;timestamp;pressure;altitude;pressure_sealevel;temperature
55038;BMP280;40937;53.594;10.034;2023-03-23T00:01:08;100406.03;;;11.72
55038;BMP280;40937;53.594;10.034;2023-03-23T00:03:36;100413.09;;;11.66
55038;BMP280;40937;53.594;10.034;2023-03-23T00:06:04;100409.91;;;11.64
55038;BMP280;40937;53.594;10.034;2023-03-23T00:08:33;100414.59;;;11.62
55038;BMP280;40937;53.594;10.034;2023-03-23T00:11:03;100409.56;;;11.61
55038;BMP280;40937;53.594;10.034;2023-03-23T00:13:31;100399.78;;;11.56
55038;BMP280;40937;53.594;10.034;2023-03-23T00:16:00;100398.72;;;11.57
55038;BMP280;40937;53.594;10.034;2023-03-23T00:18:27;100407.69;;;11.56
55038;BMP280;40937;53.594;10.034;2023-03-23T00:20:56;100408.19;;;11.53
55038;BMP280;40937;53.594;10.034;2023-03-23T00:23:25;100396.50;;;11.49
55038;BMP280;40937;53.594;10.034;2023-03-23T00:25:55;100399.09;;;11.44
55038;BMP280;40937;53.594;10.034;2023-03-23T00:28:25;100383.78;;;11.46
55038;BMP280;40937;53.594;10.034;2023-03-23T00:30:56;100382.44;;;11.43
55038;BMP280;40937;53.594;10.034;2023-03-23T00:33:27;100378.22;;;11.42
55038;BMP280;40937;53.594;10.034;2023-03-23T00:35:55;100384.28;;;11.43
55038;BMP280;40937;53.594;10.034;2023-03-23T00:38:23;100367.91;;;11.41
55038;BMP280;40937;53.594;10.034;2023-03-23T00:40:53;100361.56;;;11.42
55038;BMP280;40937;53.594;10.034;2023-03-23T00:43:23;100355.72;;;11.40
55038;BMP280;40937;53.594;10.034;2023-03-23T00:45:55;100347.78;;;11.40
55038;BMP280;40937;53.594;10.034;2023-03-23T00:48:23;100359.38;;;11.39
55038;BMP280;40937;53.594;10.034;2023-03-23T00:50:53;100340.38;;;11.37
55038;BMP280;40937;53.594;10.034;2023-03-23T00:53:21;100337.47;;;11.38
55038;BMP280;40937;53.594;10.034;2023-03-23T00:55:49;100318.75;;;11.40
55038;BMP280;40937;53.594;10.034;2023-03-23T00:58:16;100319.50;;;11.35
55038;BMP280;40937;53.594;10.034;2023-03-23T01:00:43;100324.03;;;11.40
55038;BMP280;40937;53.594;10.034;2023-03-23T01:03:11;100332.97;;;11.39
55038;BMP280;40937;53.594;10.034;2023-03-23T01:05:44;100318.97;;;11.38
55038;BMP280;40937;53.594;10.034;2023-03-23T01:08:15;100316.09;;;11.40
55038;BMP280;40937;53.594;10.034;2023-03-23T01:10:42;100310.59;;;11.41
55038;BMP280;40937;53.594;10.034;2023-03-23T01:13:11;100312.44;;;11.41
55038;BMP280;40937;53.594;10.034;2023-03-23T01:15:38;100307.69;;;11.43
55038;BMP280;40937;53.594;10.034;2023-03-23T01:18:06;100302.91;;;11.40
55038;BMP280;40937;53.594;10.034;2023-03-23T01:20:34;100296.00;;;11.39
55038;BMP280;40937;53.594;10.034;2023-03-23T01:23:02;100285.44;;;11.39
55038;BMP280;40937;53.594;10.034;2023-03-23T01:25:35;100283.38;;;11.41
55038;BMP280;40937;53.594;10.034;2023-03-23T01:28:03;100305.31;;;11.41
55038;BMP280;40937;53.594;10.034;2023-03-23T01:30:30;100296.00;;;11.39
55038;BMP280;40937;53.594;10.034;2023-03-23T01:32:58;100291.78;;;11.38
55038;BMP280;40937;53.594;10.034;2023-03-23T01:35:25;100283.88;;;11.38
55038;BMP280;40937;53.594;10.034;2023-03-23T01:37:53;100279.66;;;11.37
55038;BMP280;40937;53.594;10.034;2023-03-23T01:40:20;100286.50;;;11.38
55038;BMP280;40937;53.594;10.034;2023-03-23T01:42:49;100281.22;;;11.38
55038;BMP280;40937;53.594;10.034;2023-03-23T01:45:31;100280.13;;;11.34
55038;BMP280;40937;53.594;10.034;2023-03-23T01:48:08;100270.13;;;11.36
55038;BMP280;40937;53.594;10.034;2023-03-23T01:50:43;100266.94;;;11.34
55038;BMP280;40937;53.594;10.034;2023-03-23T01:53:13;100267.72;;;11.34
55038;BMP280;40937;53.594;10.034;2023-03-23T01:55:43;100264.84;;;11.36
55038;BMP280;40937;53.594;10.034;2023-03-23T01:58:17;100256.91;;;11.36
55038;BMP280;40937;53.594;10.034;2023-03-23T02:00:46;100253.19;;;11.31
55038;BMP280;40937;53.594;10.034;2023-03-23T02:03:15;100253.19;;;11.31
55038;BMP280;40937;53.594;10.034;2023-03-23T02:05:43;100249.97;;;11.29
55038;BMP280;40937;53.594;10.034;2023-03-23T02:08:20;100240.72;;;11.27
55038;BMP280;40937;53.594;10.034;2023-03-23T02:10:48;100252.31;;;11.26
55038;BMP280;40937;53.594;10.034;2023-03-23T02:13:17;100244.94;;;11.28
55038;BMP280;40937;53.594;10.034;2023-03-23T02:15:58;100249.69;;;11.26
55038;BMP280;40937;53.594;10.034;2023-03-23T02:18:39;100244.66;;;11.24
55038;BMP280;40937;53.594;10.034;2023-03-23T02:21:35;100246.50;;;11.24
55038;BMP280;40937;53.594;10.034;2023-03-23T02:24:27;100242.00;;;11.24
55038;BMP280;40937;53.594;10.034;2023-03-23T02:26:58;100243.63;;;11.25
55038;BMP280;40937;53.594;10.034;2023-03-23T02:29:51;100236.72;;;11.24
55038;BMP280;40937;53.594;10.034;2023-03-23T02:32:38;100234.63;;;11.26
55038;BMP280;40937;53.594;10.034;2023-03-23T02:35:18;100242.56;;;11.26
55038;BMP280;40937;53.594;10.034;2023-03-23T02:37:50;100234.13;;;11.29
55038;BMP280;40937;53.594;10.034;2023-03-23T02:40:21;100234.41;;;11.28
55038;BMP280;40937;53.594;10.034;2023-03-23T02:42:52;100229.94;;;11.28
55038;BMP280;40937;53.594;10.034;2023-03-23T02:45:21;100224.88;;;11.27
55038;BMP280;40937;53.594;10.034;2023-03-23T02:47:52;100214.59;;;11.30
55038;BMP280;40937;53.594;10.034;2023-03-23T02:50:23;100221.50;;;11.31
55038;BMP280;40937;53.594;10.034;2023-03-23T02:52:53;100208.81;;;11.28
55038;BMP280;40937;53.594;10.034;2023-03-23T02:55:22;100215.13;;;11.27
55038;BMP280;40937;53.594;10.034;2023-03-23T02:57:52;100216.22;;;11.31
55038;BMP280;40937;53.594;10.034;2023-03-23T03:00:20;100215.63;;;11.29
55038;BMP280;40937;53.594;10.034;2023-03-23T03:02:48;100205.84;;;11.25
55038;BMP280;40937;53.594;10.034;2023-03-23T03:05:27;100205.03;;;11.24
55038;BMP280;40937;53.594;10.034;2023-03-23T03:08:01;100210.88;;;11.26
55038;BMP280;40937;53.594;10.034;2023-03-23T03:10:38;100210.09;;;11.26
55038;BMP280;40937;53.594;10.034;2023-03-23T03:13:14;100195.59;;;11.28
55038;BMP280;40937;53.594;10.034;2023-03-23T03:15:52;100186.09;;;11.32
55038;BMP280;40937;53.594;10.034;2023-03-23T03:18:24;100188.19;;;11.30
55038;BMP280;40937;53.594;10.034;2023-03-23T03:20:58;100176.84;;;11.30
55038;BMP280;40937;53.594;10.034;2023-03-23T03:23:28;100183.94;;;11.29
55038;BMP280;40937;53.594;10.034;2023-03-23T03:26:00;100175.53;;;11.32
55038;BMP280;40937;53.594;10.034;2023-03-23T03:28:39;100147.81;;;11.30
55038;BMP280;40937;53.594;10.034;2023-03-23T03:31:08;100134.59;;;11.30
55038;BMP280;40937;53.594;10.034;2023-03-23T03:33:37;100138.81;;;11.31
55038;BMP280;40937;53.594;10.034;2023-03-23T03:36:07;100132.50;;;11.32
55038;BMP280;40937;53.594;10.034;2023-03-23T03:38:42;100151.28;;;11.36
55038;BMP280;40937;53.594;10.034;2023-03-23T03:41:09;100150.25;;;11.37
55038;BMP280;40937;53.594;10.034;2023-03-23T03:43:37;100136.50;;;11.35
55038;BMP280;40937;53.594;10.034;2023-03-23T03:46:04;100150.25;;;11.37
55038;BMP280;40937;53.594;10.034;2023-03-23T03:48:32;100136.78;;;11.38
55038;BMP280;40937;53.594;10.034;2023-03-23T03:51:00;100134.94;;;11.39
55038;BMP280;40937;53.594;10.034;2023-03-23T03:53:32;100160.31;;;11.40
55038;BMP280;40937;53.594;10.034;2023-03-23T03:56:00;100164.78;;;11.39
55038;BMP280;40937;53.594;10.034;2023-03-23T03:58:35;100160.06;;;11.41
55038;BMP280;40937;53.594;10.034;2023-03-23T04:01:11;100150.53;;;11.40
55038;BMP280;40937;53.594;10.034;2023-03-23T04:03:40;100152.63;;;11.38
55038;BMP280;40937;53.594;10.034;2023-03-23T04:06:28;100139.19;;;11.40
55038;BMP280;40937;53.594;10.034;2023-03-23T04:08:57;100149.25;;;11.43
55038;BMP280;40937;53.594;10.034;2023-03-23T04:11:27;100135.25;;;11.42
55038;BMP280;40937;53.594;10.034;2023-03-23T04:14:08;100150.84;;;11.44
55038;BMP280;40937;53.594;10.034;2023-03-23T04:16:42;100143.44;;;11.46
55038;BMP280;40937;53.594;10.034;2023-03-23T04:19:10;100161.41;;;11.44
55038;BMP280;40937;53.594;10.034;2023-03-23T04:21:38;100169.06;;;11.45
55038;BMP280;40937;53.594;10.034;2023-03-23T04:24:07;100154.00;;;11.46
55038;BMP280;40937;53.594;10.034;2023-03-23T04:26:35;100147.69;;;11.47
55038;BMP280;40937;53.594;10.034;2023-03-23T04:29:13;100160.91;;;11.47
55038;BMP280;40937;53.594;10.034;2023-03-23T04:32:01;100158.81;;;11.49
55038;BMP280;40937;53.594;10.034;2023-03-23T04:34:36;100162.47;;;11.48
55038;BMP280;40937;53.594;10.034;2023-03-23T04:37:03;100162.47;;;11.48
55038;BMP280;40937;53.594;10.034;2023-03-23T04:39:33;100155.63;;;11.47
55038;BMP280;40937;53.594;10.034;2023-03-23T04:42:03;100147.69;;;11.47
55038;BMP280;40937;53.594;10.034;2023-03-23T04:44:58;100157.19;;;11.48
55038;BMP280;40937;53.594;10.034;2023-03-23T04:47:36;100156.41;;;11.47
55038;BMP280;40937;53.594;10.034;2023-03-23T04:50:12;100158.81;;;11.49
55038;BMP280;40937;53.594;10.034;2023-03-23T04:52:41;100145.06;;;11.47
55038;BMP280;40937;53.594;10.034;2023-03-23T04:55:14;100145.31;;;11.45
55038;BMP280;40937;53.594;10.034;2023-03-23T04:57:45;100142.41;;;11.47
55038;BMP280;40937;53.594;10.034;2023-03-23T05:00:38;100147.69;;;11.47
55038;BMP280;40937;53.594;10.034;2023-03-23T05:03:06;100129.22;;;11.47
55038;BMP280;40937;53.594;10.034;2023-03-23T05:05:35;100133.19;;;11.49
55038;BMP280;40937;53.594;10.034;2023-03-23T05:08:06;100134.00;;;11.50
55038;BMP280;40937;53.594;10.034;2023-03-23T05:10:41;100141.41;;;11.53
55038;BMP280;40937;53.594;10.034;2023-03-23T05:13:13;100137.19;;;11.52
55038;BMP280;40937;53.594;10.034;2023-03-23T05:15:42;100133.75;;;11.52
55038;BMP280;40937;53.594;10.034;2023-03-23T05:18:09;100143.78;;;11.55
55038;BMP280;40937;53.594;10.034;2023-03-23T05:20:37;100135.88;;;11.55
55038;BMP280;40937;53.594;10.034;2023-03-23T05:23:10;100137.75;;;11.59
55038;BMP280;40937;53.594;10.034;2023-03-23T05:25:39;100135.66;;;11.61
55038;BMP280;40937;53.594;10.034;2023-03-23T05:28:15;100134.06;;;11.60
55038;BMP280;40937;53.594;10.034;2023-03-23T05:31:21;100144.63;;;11.60
55038;BMP280;40937;53.594;10.034;2023-03-23T05:33:49;100147.28;;;11.60
55038;BMP280;40937;53.594;10.034;2023-03-23T05:36:25;100141.44;;;11.58
55038;BMP280;40937;53.594;10.034;2023-03-23T05:39:31;100146.72;;;11.58
55038;BMP280;40937;53.594;10.034;2023-03-23T05:42:08;100139.84;;;11.57
55038;BMP280;40937;53.594;10.034;2023-03-23T05:44:52;100136.16;;;11.58
55038;BMP280;40937;53.594;10.034;2023-03-23T05:47:19;100126.41;;;11.59
55038;BMP280;40937;53.594;10.034;2023-03-23T05:49:54;100133.28;;;11.60
55038;BMP280;40937;53.594;10.034;2023-03-23T05:52:23;100121.91;;;11.59
55038;BMP280;40937;53.594;10.034;2023-03-23T05:54:51;100120.28;;;11.53
55038;BMP280;40937;53.594;10.034;2023-03-23T05:57:20;100124.50;;;11.54
55038;BMP280;40937;53.594;10.034;2023-03-23T06:00:00;100120.31;;;11.58
55038;BMP280;40937;53.594;10.034;2023-03-23T06:02:38;100123.22;;;11.57
55038;BMP280;40937;53.594;10.034;2023-03-23T06:05:11;100133.78;;;11.57
55038;BMP280;40937;53.594;10.034;2023-03-23T06:07:42;100128.19;;;11.53
55038;BMP280;40937;53.594;10.034;2023-03-23T06:10:10;100125.56;;;11.53
55038;BMP280;40937;53.594;10.034;2023-03-23T06:12:39;100129.50;;;11.50
55038;BMP280;40937;53.594;10.034;2023-03-23T06:15:28;100117.63;;;11.53
55038;BMP280;40937;53.594;10.034;2023-03-23T06:17:58;100115.00;;;11.53
55038;BMP280;40937;53.594;10.034;2023-03-23T06:20:31;100115.00;;;11.53
55038;BMP280;40937;53.594;10.034;2023-03-23T06:23:07;100111.53;;;11.52
55038;BMP280;40937;53.594;10.034;2023-03-23T06:25:35;100110.78;;;11.52
55038;BMP280;40937;53.594;10.034;2023-03-23T06:28:03;100117.13;;;11.56
55038;BMP280;40937;53.594;10.034;2023-03-23T06:30:39;100123.50;;;11.60
55038;BMP280;40937;53.594;10.034;2023-03-23T06:33:09;100125.06;;;11.56
55038;BMP280;40937;53.594;10.034;2023-03-23T06:35:58;100129.78;;;11.54
55038;BMP280;40937;53.594;10.034;2023-03-23T06:38:42;100115.53;;;11.55
55038;BMP280;40937;53.594;10.034;2023-03-23T06:41:09;100127.69;;;11.56
55038;BMP280;40937;53.594;10.034;2023-03-23T06:43:37;100131.38;;;11.55
55038;BMP280;40937;53.594;10.034;2023-03-23T06:46:15;100125.06;;;11.56
55038;BMP280;40937;53.594;10.034;2023-03-23T06:48:44;100118.72;;;11.57
55038;BMP280;40937;53.594;10.034;2023-03-23T06:51:16;100131.44;;;11.65
55038;BMP280;40937;53.594;10.034;2023-03-23T06:53:48;100119.84;;;11.71
55038;BMP280;40937;53.594;10.034;2023-03-23T06:56:16;100122.25;;;11.73
55038;BMP280;40937;53.594;10.034;2023-03-23T06:58:44;100122.00;;;11.75
55038;BMP280;40937;53.594;10.034;2023-03-23T07:01:14;100128.63;;;11.77
55038;BMP280;40937;53.594;10.034;2023-03-23T07:03:50;100115.44;;;11.82
55038;BMP280;40937;53.594;10.034;2023-03-23T07:06:24;100118.63;;;11.84
55038;BMP280;40937;53.594;10.034;2023-03-23T07:08:57;100124.22;;;11.88
55038;BMP280;40937;53.594;10.034;2023-03-23T07:11:27;100125.81;;;11.89
55038;BMP280;40937;53.594;10.034;2023-03-23T07:13:58;100118.41;;;11.91
55038;BMP280;40937;53.594;10.034;2023-03-23T07:16:27;100118.41;;;11.91
55038;BMP280;40937;53.594;10.034;2023-03-23T07:18:54;100122.41;;;11.94
55038;BMP280;40937;53.594;10.034;2023-03-23T07:21:21;100125.84;;;11.99
55038;BMP280;40937;53.594;10.034;2023-03-23T07:23:49;100132.72;;;12.00
55038;BMP280;40937;53.594;10.034;2023-03-23T07:26:25;100121.13;;;12.01
55038;BMP280;40937;53.594;10.034;2023-03-23T07:28:55;100117.16;;;12.04
55038;BMP280;40937;53.594;10.034;2023-03-23T07:31:33;100123.53;;;12.08
55038;BMP280;40937;53.594;10.034;2023-03-23T07:34:00;100121.13;;;12.06
55038;BMP280;40937;53.594;10.034;2023-03-23T07:36:38;100118.53;;;12.12
55038;BMP280;40937;53.594;10.034;2023-03-23T07:39:07;100126.47;;;12.17
55038;BMP280;40937;53.594;10.034;2023-03-23T07:41:35;100129.13;;;12.22
55038;BMP280;40937;53.594;10.034;2023-03-23T07:44:14;100136.56;;;12.25
55038;BMP280;40937;53.594;10.034;2023-03-23T07:46:44;100143.47;;;12.31
55038;BMP280;40937;53.594;10.034;2023-03-23T07:49:15;100142.16;;;12.34
55038;BMP280;40937;53.594;10.034;2023-03-23T07:51:54;100142.44;;;12.37
55038;BMP280;40937;53.594;10.034;2023-03-23T07:54:22;100151.41;;;12.41
55038;BMP280;40937;53.594;10.034;2023-03-23T07:56:58;100150.91;;;12.34
55038;BMP280;40937;53.594;10.034;2023-03-23T07:59:29;100158.75;;;12.29
55038;BMP280;40937;53.594;10.034;2023-03-23T08:02:00;100150.03;;;12.28
55038;BMP280;40937;53.594;10.034;2023-03-23T08:04:42;100151.38;;;12.26
55038;BMP280;40937;53.594;10.034;2023-03-23T08:07:10;100164.88;;;12.29
55038;BMP280;40937;53.594;10.034;2023-03-23T08:09:47;100156.13;;;12.29
55038;BMP280;40937;53.594;10.034;2023-03-23T08:12:54;100163.81;;;12.30
55038;BMP280;40937;53.594;10.034;2023-03-23T08:15:40;100170.41;;;12.28
55038;BMP280;40937;53.594;10.034;2023-03-23T08:18:21;100170.94;;;12.25
55038;BMP280;40937;53.594;10.034;2023-03-23T08:21:14;100165.09;;;12.23
55038;BMP280;40937;53.594;10.034;2023-03-23T08:24:01;100176.22;;;12.25
55038;BMP280;40937;53.594;10.034;2023-03-23T08:27:01;100191.75;;;12.16
55038;BMP280;40937;53.594;10.034;2023-03-23T08:29:52;100229.69;;;11.95
55038;BMP280;40937;53.594;10.034;2023-03-23T08:32:42;100183.88;;;11.84
55038;BMP280;40937;53.594;10.034;2023-03-23T08:35:27;100197.09;;;11.84
55038;BMP280;40937;53.594;10.034;2023-03-23T08:38:15;100212.69;;;11.80
55038;BMP280;40937;53.594;10.034;2023-03-23T08:40:58;100180.19;;;11.80
55038;BMP280;40937;53.594;10.034;2023-03-23T08:43:54;100180.19;;;11.80
55038;BMP280;40937;53.594;10.034;2023-03-23T08:46:58;100184.63;;;11.74
55038;BMP280;40937;53.594;10.034;2023-03-23T08:49:51;100199.41;;;11.75
55038;BMP280;40937;53.594;10.034;2023-03-23T08:52:40;100203.97;;;11.80
55038;BMP280;40937;53.594;10.034;2023-03-23T08:55:31;100211.66;;;11.86
55038;BMP280;40937;53.594;10.034;2023-03-23T08:58:21;100211.97;;;11.90
55038;BMP280;40937;53.594;10.034;2023-03-23T09:01:18;100201.94;;;11.92
55038;BMP280;40937;53.594;10.034;2023-03-23T09:04:04;100197.19;;;11.94
55038;BMP280;40937;53.594;10.034;2023-03-23T09:06:55;100212.03;;;12.00
55038;BMP280;40937;53.594;10.034;2023-03-23T09:09:24;100209.91;;;12.02
55038;BMP280;40937;53.594;10.034;2023-03-23T09:11:53;100214.19;;;12.08
55038;BMP280;40937;53.594;10.034;2023-03-23T09:14:20;100213.16;;;12.15
55038;BMP280;40937;53.594;10.034;2023-03-23T09:16:48;100225.34;;;12.16
55038;BMP280;40937;53.594;10.034;2023-03-23T09:19:15;100230.13;;;12.19
55038;BMP280;40937;53.594;10.034;2023-03-23T09:21:42;100220.34;;;12.19
55038;BMP280;40937;53.594;10.034;2023-03-23T09:24:11;100222.22;;;12.19
55038;BMP280;40937;53.594;10.034;2023-03-23T09:26:39;100224.84;;;12.19
55038;BMP280;40937;53.594;10.034;2023-03-23T09:29:07;100226.41;;;12.20
55038;BMP280;40937;53.594;10.034;2023-03-23T09:31:34;100230.41;;;12.22
55038;BMP280;40937;53.594;10.034;2023-03-23T09:34:02;100231.19;;;12.23
55038;BMP280;40937;53.594;10.034;2023-03-23T09:36:30;100227.50;;;12.24
55038;BMP280;40937;53.594;10.034;2023-03-23T09:38:57;100229.13;;;12.25
55038;BMP280;40937;53.594;10.034;2023-03-23T09:41:37;100235.97;;;12.26
55038;BMP280;40937;53.594;10.034;2023-03-23T09:44:16;100238.63;;;12.26
55038;BMP280;40937;53.594;10.034;2023-03-23T09:46:54;100237.56;;;12.27
55038;BMP280;40937;53.594;10.034;2023-03-23T09:49:27;100240.75;;;12.29
55038;BMP280;40937;53.594;10.034;2023-03-23T09:51:57;100258.75;;;12.32
55038;BMP280;40937;53.594;10.034;2023-03-23T09:54:27;100256.13;;;12.32
55038;BMP280;40937;53.594;10.034;2023-03-23T09:56:57;100255.06;;;12.33
55038;BMP280;40937;53.594;10.034;2023-03-23T09:59:29;100262.78;;;12.40
55038;BMP280;40937;53.594;10.034;2023-03-23T10:02:01;100260.41;;;12.43
55038;BMP280;40937;53.594;10.034;2023-03-23T10:04:34;100267.34;;;12.49
55038;BMP280;40937;53.594;10.034;2023-03-23T10:07:10;100270.50;;;12.52
55038;BMP280;40937;53.594;10.034;2023-03-23T10:09:38;100266.00;;;12.52
55038;BMP280;40937;53.594;10.034;2023-03-23T10:12:14;100264.72;;;12.55
55038;BMP280;40937;53.594;10.034;2023-03-23T10:14:55;100270.00;;;12.55
55038;BMP280;40937;53.594;10.034;2023-03-23T10:17:28;100265.00;;;12.58
55038;BMP280;40937;53.594;10.034;2023-03-23T10:20:13;100258.41;;;12.61
55038;BMP280;40937;53.594;10.034;2023-03-23T10:22:47;100271.63;;;12.66
55038;BMP280;40937;53.594;10.034;2023-03-23T10:25:20;100275.38;;;12.70
55038;BMP280;40937;53.594;10.034;2023-03-23T10:27:54;100281.97;;;12.73
55038;BMP280;40937;53.594;10.034;2023-03-23T10:30:29;100291.28;;;12.75
55038;BMP280;40937;53.594;10.034;2023-03-23T10:33:02;100287.59;;;12.76
55038;BMP280;40937;53.594;10.034;2023-03-23T10:35:42;100271.72;;;12.76
55038;BMP280;40937;53.594;10.034;2023-03-23T10:38:19;100271.72;;;12.76
55038;BMP280;40937;53.594;10.034;2023-03-23T10:40:52;100280.16;;;12.78
55038;BMP280;40937;53.594;10.034;2023-03-23T10:43:21;100271.19;;;12.79
55038;BMP280;40937;53.594;10.034;2023-03-23T10:45:53;100291.56;;;12.84
55038;BMP280;40937;53.594;10.034;2023-03-23T10:48:25;100293.22;;;12.90
55038;BMP280;40937;53.594;10.034;2023-03-23T10:50:57;100296.91;;;12.89
55038;BMP280;40937;53.594;10.034;2023-03-23T10:53:32;100306.69;;;12.88
55038;BMP280;40937;53.594;10.034;2023-03-23T10:56:01;100314.91;;;12.87
55038;BMP280;40937;53.594;10.034;2023-03-23T10:58:30;100310.38;;;12.87
55038;BMP280;40937;53.594;10.034;2023-03-23T11:01:00;100301.41;;;12.88
55038;BMP280;40937;53.594;10.034;2023-03-23T11:03:40;100290.28;;;12.92
55038;BMP280;40937;53.594;10.034;2023-03-23T11:06:09;100300.38;;;12.95
55038;BMP280;40937;53.594;10.034;2023-03-23T11:08:47;100309.63;;;12.97
55038;BMP280;40937;53.594;10.034;2023-03-23T11:11:17;100310.97;;;13.00
55038;BMP280;40937;53.594;10.034;2023-03-23T11:16:49;100326.34;;;13.08
55038;BMP280;40937;53.594;10.034;2023-03-23T11:19:22;100318.44;;;13.13
55038;BMP280;40937;53.594;10.034;2023-03-23T11:21:51;100320.56;;;13.16
55038;BMP280;40937;53.594;10.034;2023-03-23T11:24:22;100316.88;;;13.22
55038;BMP280;40937;53.594;10.034;2023-03-23T11:26:50;100305.22;;;13.23
55038;BMP280;40937;53.594;10.034;2023-03-23T11:29:21;100321.38;;;13.27
55038;BMP280;40937;53.594;10.034;2023-03-23T11:31:53;100306.06;;;13.29
55038;BMP280;40937;53.594;10.034;2023-03-23T11:34:33;100318.47;;;13.28
55038;BMP280;40937;53.594;10.034;2023-03-23T11:37:04;100311.59;;;13.33
55038;BMP280;40937;53.594;10.034;2023-03-23T11:39:34;100313.19;;;13.34
55038;BMP280;40937;53.594;10.034;2023-03-23T11:42:18;100317.44;;;13.35
55038;BMP280;40937;53.594;10.034;2023-03-23T11:44:46;100336.78;;;13.35
55038;BMP280;40937;53.594;10.034;2023-03-23T11:47:22;100318.50;;;13.34
55038;BMP280;40937;53.594;10.034;2023-03-23T11:50:03;100320.34;;;13.33
55038;BMP280;40937;53.594;10.034;2023-03-23T11:52:36;100310.00;;;13.31
55038;BMP280;40937;53.594;10.034;2023-03-23T11:55:10;100316.91;;;13.33
55038;BMP280;40937;53.594;10.034;2023-03-23T11:57:38;100330.13;;;13.33
55038;BMP280;40937;53.594;10.034;2023-03-23T12:00:13;100338.09;;;13.33
55038;BMP280;40937;53.594;10.034;2023-03-23T12:06:00;100355.81;;;13.27
55038;BMP280;40937;53.594;10.034;2023-03-23T12:08:39;100353.16;;;13.22
55038;BMP280;40937;53.594;10.034;2023-03-23T12:11:15;100340.44;;;13.24
55038;BMP280;40937;53.594;10.034;2023-03-23T12:13:56;100345.75;;;13.24
55038;BMP280;40937;53.594;10.034;2023-03-23T12:16:36;100341.53;;;13.28
55038;BMP280;40937;53.594;10.034;2023-03-23T12:19:12;100338.88;;;13.28
55038;BMP280;40937;53.594;10.034;2023-03-23T12:21:52;100349.72;;;13.26
55038;BMP280;40937;53.594;10.034;2023-03-23T12:24:32;100343.84;;;13.19
55038;BMP280;40937;53.594;10.034;2023-03-23T12:27:06;100339.09;;;13.16
55038;BMP280;40937;53.594;10.034;2023-03-23T12:29:49;100355.53;;;13.13
55038;BMP280;40937;53.594;10.034;2023-03-23T12:32:30;100349.66;;;13.11
55038;BMP280;40937;53.594;10.034;2023-03-23T12:35:10;100343.84;;;13.09
55038;BMP280;40937;53.594;10.034;2023-03-23T12:37:51;100338.56;;;13.09
55038;BMP280;40937;53.594;10.034;2023-03-23T12:40:35;100345.72;;;13.08
55038;BMP280;40937;53.594;10.034;2023-03-23T12:43:11;100335.91;;;13.09
55038;BMP280;40937;53.594;10.034;2023-03-23T12:45:55;100341.72;;;13.11
55038;BMP280;40937;53.594;10.034;2023-03-23T12:48:26;100333.25;;;13.09
55038;BMP280;40937;53.594;10.034;2023-03-23T12:51:08;100326.34;;;13.08
55038;BMP280;40937;53.594;10.034;2023-03-23T12:53:42;100337.44;;;13.05
55038;BMP280;40937;53.594;10.034;2023-03-23T12:56:18;100332.16;;;13.05
55038;BMP280;40937;53.594;10.034;2023-03-23T12:58:49;100339.06;;;13.06
55038;BMP280;40937;53.594;10.034;2023-03-23T13:01:19;100335.38;;;13.07
55038;BMP280;40937;53.594;10.034;2023-03-23T13:03:56;100332.72;;;13.12
55038;BMP280;40937;53.594;10.034;2023-03-23T13:06:29;100329.63;;;13.30
55038;BMP280;40937;53.594;10.034;2023-03-23T13:09:09;100323.28;;;13.47
55038;BMP280;40937;53.594;10.034;2023-03-23T13:11:40;100317.75;;;13.64
55038;BMP280;40937;53.594;10.034;2023-03-23T13:14:18;100322.81;;;13.81
55038;BMP280;40937;53.594;10.034;2023-03-23T13:16:52;100320.16;;;13.96
55038;BMP280;40937;53.594;10.034;2023-03-23T13:19:27;100322.25;;;14.15
55038;BMP280;40937;53.594;10.034;2023-03-23T13:22:02;100312.72;;;14.24
55038;BMP280;40937;53.594;10.034;2023-03-23T13:24:36;100316.94;;;14.35
55038;BMP280;40937;53.594;10.034;2023-03-23T13:27:06;100313.47;;;14.50
55038;BMP280;40937;53.594;10.034;2023-03-23T13:29:35;100316.88;;;14.56
55038;BMP280;40937;53.594;10.034;2023-03-23T13:32:17;100311.03;;;14.64
55038;BMP280;40937;53.594;10.034;2023-03-23T13:34:46;100305.16;;;14.72
55038;BMP280;40937;53.594;10.034;2023-03-23T13:37:20;100308.34;;;14.74
55038;BMP280;40937;53.594;10.034;2023-03-23T13:39:52;100303.06;;;14.69
55038;BMP280;40937;53.594;10.034;2023-03-23T13:42:23;100298.78;;;14.68
55038;BMP280;40937;53.594;10.034;2023-03-23T13:45:06;100308.38;;;14.64
55038;BMP280;40937;53.594;10.034;2023-03-23T13:47:38;100310.50;;;14.67
55038;BMP280;40937;53.594;10.034;2023-03-23T13:50:11;100298.28;;;14.66
55038;BMP280;40937;53.594;10.034;2023-03-23T13:52:50;100300.41;;;14.59
55038;BMP280;40937;53.594;10.034;2023-03-23T13:55:29;100294.06;;;14.55
55038;BMP280;40937;53.594;10.034;2023-03-23T13:57:58;100295.16;;;14.48
55038;BMP280;40937;53.594;10.034;2023-03-23T14:00:44;100312.41;;;14.41
55038;BMP280;40937;53.594;10.034;2023-03-23T14:03:15;100353.03;;;14.16
55038;BMP280;40937;53.594;10.034;2023-03-23T14:05:44;100362.00;;;13.58
55038;BMP280;40937;53.594;10.034;2023-03-23T14:08:20;100362.56;;;12.97
55038;BMP280;40937;53.594;10.034;2023-03-23T14:10:54;100379.28;;;12.23
55038;BMP280;40937;53.594;10.034;2023-03-23T14:13:29;100391.44;;;12.19
55038;BMP280;40937;53.594;10.034;2023-03-23T14:16:00;100412.44;;;12.03
55038;BMP280;40937;53.594;10.034;2023-03-23T14:18:32;100396.78;;;11.97
55038;BMP280;40937;53.594;10.034;2023-03-23T14:21:01;100356.78;;;11.88
55038;BMP280;40937;53.594;10.034;2023-03-23T14:23:31;100351.72;;;11.86
55038;BMP280;40937;53.594;10.034;2023-03-23T14:26:05;100338.81;;;11.90
55038;BMP280;40937;53.594;10.034;2023-03-23T14:28:39;100345.19;;;11.94